createdAt,value
2023-05-10T00:00:19.561Z,95038.69
2023-05-10T00:01:21.267Z,95031.56
2023-05-10T00:02:22.774Z,95029.97
2023-05-10T00:03:24.678Z,95025.44
2023-05-10T00:04:28.410Z,95029.69
2023-05-10T00:05:32.565Z,95030.22
2023-05-10T00:06:36.584Z,95023.59
2023-05-10T00:07:38.195Z,95021.47
2023-05-10T00:08:39.685Z,95027.03
2023-05-10T00:09:41.241Z,95025.16
2023-05-10T00:10:42.764Z,95025.44
2023-05-10T00:11:44.263Z,95018.84
2023-05-10T00:12:45.776Z,95018.03
2023-05-10T00:13:47.387Z,95022.28
2023-05-10T00:14:48.880Z,95020.69
2023-05-10T00:15:50.435Z,95018.56
2023-05-10T00:16:52.130Z,95017.50
2023-05-10T00:17:53.742Z,95020.97
2023-05-10T00:18:55.444Z,95018.56
2023-05-10T00:19:57.120Z,95019.38
2023-05-10T00:21:01.027Z,95015.66
2023-05-10T00:22:02.785Z,95013.00
2023-05-10T00:23:04.413Z,95016.44
2023-05-10T00:24:06.057Z,95016.19
2023-05-10T00:25:07.974Z,95014.84
2023-05-10T00:26:09.505Z,95020.16
2023-05-10T00:27:13.053Z,95020.69
2023-05-10T00:28:14.730Z,95023.84
2023-05-10T00:29:16.240Z,95026.25
2023-05-10T00:30:18.105Z,95024.91
2023-05-10T00:31:22.060Z,95029.44
2023-05-10T00:32:23.854Z,95028.09
2023-05-10T00:33:27.934Z,95023.59
2023-05-10T00:34:29.366Z,95023.84
2023-05-10T00:35:33.176Z,95023.84
2023-05-10T00:36:37.711Z,95018.56
2023-05-10T00:37:39.179Z,95022.81
2023-05-10T00:38:41.411Z,95012.47
2023-05-10T00:39:42.854Z,95024.91
2023-05-10T00:40:44.950Z,95012.72
2023-05-10T00:41:53.875Z,95022.03
2023-05-10T00:42:55.506Z,95011.66
2023-05-10T00:43:57.066Z,95015.91
2023-05-10T00:44:58.900Z,95016.72
2023-05-10T00:46:03.730Z,95010.06
2023-05-10T00:47:05.238Z,95021.22
2023-05-10T00:48:06.830Z,95010.06
2023-05-10T00:49:10.501Z,95010.84
2023-05-10T00:50:12.077Z,95016.16
2023-05-10T00:51:14.346Z,95016.94
2023-05-10T00:52:18.358Z,95011.66
2023-05-10T00:53:19.994Z,95016.38
2023-05-10T00:54:21.695Z,95019.03
2023-05-10T00:55:23.241Z,95023.78
2023-05-10T00:56:25.691Z,95017.44
2023-05-10T00:57:27.460Z,95022.72
2023-05-10T00:58:29.362Z,95027.47
2023-05-10T00:59:31.047Z,95029.31
2023-05-10T01:00:35.766Z,95028.50
2023-05-10T01:01:39.870Z,95026.94
2023-05-10T01:02:41.450Z,95031.16
2023-05-10T01:03:43.652Z,95026.16
2023-05-10T01:04:48.399Z,95028.25
2023-05-10T01:05:50.752Z,95026.38
2023-05-10T01:06:54.427Z,95034.09
2023-05-10T01:07:57.052Z,95034.09
2023-05-10T01:08:58.743Z,95032.75
2023-05-10T01:10:00.858Z,95035.94
2023-05-10T01:11:03.327Z,95032.50
2023-05-10T01:12:07.807Z,95039.94
2023-05-10T01:13:10.120Z,95039.94
2023-05-10T01:14:18.074Z,95030.63
2023-05-10T01:15:21.249Z,95029.84
2023-05-10T01:16:23.246Z,95028.25
2023-05-10T01:17:25.368Z,95024.78
2023-05-10T01:18:27.878Z,95033.00
2023-05-10T01:19:30.581Z,95026.13
2023-05-10T01:20:37.125Z,95031.13
2023-05-10T01:21:43.904Z,95027.94
2023-05-10T01:23:04.212Z,95029.53
2023-05-10T01:24:29.840Z,95035.13
2023-05-10T01:26:04.776Z,95027.69
2023-05-10T01:27:24.479Z,95031.09
2023-05-10T01:28:38.373Z,95032.44
2023-05-10T01:30:14.066Z,95031.09
2023-05-10T01:31:37.480Z,95031.31
2023-05-10T01:32:48.266Z,95035.03
2023-05-10T01:34:10.088Z,95029.72
2023-05-10T01:35:20.135Z,95034.50
2023-05-10T01:36:28.404Z,95028.44
2023-05-10T01:37:50.176Z,95035.84
2023-05-10T01:38:54.560Z,95036.13
2023-05-10T01:39:59.208Z,95032.91
2023-05-10T01:41:19.116Z,95033.22
2023-05-10T01:42:41.983Z,95029.50
2023-05-10T01:43:46.506Z,95026.31
2023-05-10T01:45:08.142Z,95030.84
2023-05-10T01:46:20.045Z,95032.44
2023-05-10T01:47:26.993Z,95028.97
2023-05-10T01:48:29.605Z,95034.81
2023-05-10T01:49:33.080Z,95034.50
2023-05-10T01:50:36.466Z,95036.38
2023-05-10T01:51:45.284Z,95037.97
2023-05-10T01:52:51.007Z,95034.50
2023-05-10T01:53:57.997Z,95030.28
2023-05-10T01:55:17.091Z,95030.03
2023-05-10T01:56:24.052Z,95029.22
2023-05-10T01:57:28.811Z,95030.56
2023-05-10T01:58:32.541Z,95040.09
2023-05-10T01:59:37.965Z,95032.66
2023-05-10T02:00:42.867Z,95035.03
2023-05-10T02:01:46.045Z,95030.25
2023-05-10T02:02:49.918Z,95033.16
2023-05-10T02:03:53.033Z,95029.69
2023-05-10T02:04:56.259Z,95029.16
2023-05-10T02:05:58.454Z,95035.50
2023-05-10T02:07:00.062Z,95032.84
2023-05-10T02:08:04.755Z,95033.66
2023-05-10T02:09:06.966Z,95032.63
2023-05-10T02:10:09.210Z,95033.41
2023-05-10T02:11:13.383Z,95031.56
2023-05-10T02:12:16.519Z,95028.91
2023-05-10T02:13:19.056Z,95029.97
2023-05-10T02:14:21.198Z,95026.81
2023-05-10T02:15:24.701Z,95025.72
2023-05-10T02:16:28.215Z,95021.22
2023-05-10T02:17:31.481Z,95024.69
2023-05-10T02:18:34.298Z,95022.00
2023-05-10T02:19:41.839Z,95020.69
2023-05-10T02:20:46.357Z,95026.78
2023-05-10T02:21:48.232Z,95029.44
2023-05-10T02:22:51.708Z,95026.50
2023-05-10T02:23:54.375Z,95018.84
2023-05-10T02:24:56.782Z,95022.03
2023-05-10T02:25:59.832Z,95019.91
2023-05-10T02:27:03.247Z,95022.28
2023-05-10T02:28:06.588Z,95017.81
2023-05-10T02:29:09.139Z,95009.31
2023-05-10T02:30:11.235Z,95016.22
2023-05-10T02:31:13.140Z,95009.88
2023-05-10T02:32:15.511Z,95015.16
2023-05-10T02:33:17.833Z,95006.41
2023-05-10T02:34:22.338Z,95017.00
2023-05-10T02:35:24.430Z,95011.44
2023-05-10T02:36:28.413Z,95007.75
2023-05-10T02:37:29.941Z,95010.66
2023-05-10T02:38:32.492Z,95018.34
2023-05-10T02:39:34.082Z,95016.25
2023-05-10T02:40:36.572Z,95019.19
2023-05-10T02:41:38.373Z,95015.72
2023-05-10T02:42:43.141Z,95015.72
2023-05-10T02:43:50.617Z,95019.44
2023-05-10T02:44:54.296Z,95019.19
2023-05-10T02:45:55.846Z,95015.19
2023-05-10T02:46:58.066Z,95020.50
2023-05-10T02:48:00.426Z,95017.31
2023-05-10T02:49:02.117Z,95020.72
2023-05-10T02:50:04.205Z,95020.72
2023-05-10T02:51:09.038Z,95023.09
2023-05-10T02:52:11.195Z,95022.03
2023-05-10T02:53:17.068Z,95026.25
2023-05-10T02:54:28.323Z,95019.34
2023-05-10T02:55:33.707Z,95021.19
2023-05-10T02:56:36.867Z,95020.94
2023-05-10T02:57:41.833Z,95028.91
2023-05-10T02:58:43.380Z,95019.34
2023-05-10T02:59:46.037Z,95025.72
2023-05-10T03:00:49.870Z,95025.16
2023-05-10T03:01:51.439Z,95023.56
2023-05-10T03:02:53.768Z,95030.97
2023-05-10T03:03:55.456Z,95036.28
2023-05-10T03:04:57.162Z,95036.25
2023-05-10T03:06:01.761Z,95035.97
2023-05-10T03:07:03.523Z,95044.44
2023-05-10T03:08:05.776Z,95041.78
2023-05-10T03:09:08.759Z,95044.19
2023-05-10T03:10:11.758Z,95052.69
2023-05-10T03:11:15.499Z,95047.31
2023-05-10T03:12:17.164Z,95056.84
2023-05-10T03:13:24.546Z,95062.16
2023-05-10T03:14:32.128Z,95063.50
2023-05-10T03:15:36.538Z,95060.84
2023-05-10T03:16:47.995Z,95066.16
2023-05-10T03:18:18.621Z,95066.69
2023-05-10T03:19:28.566Z,95067.75
2023-05-10T03:20:36.263Z,95063.81
2023-05-10T03:21:39.058Z,95064.59
2023-05-10T03:22:48.773Z,95070.94
2023-05-10T03:24:00.313Z,95066.44
2023-05-10T03:25:05.394Z,95067.78
2023-05-10T03:26:07.407Z,95061.88
2023-05-10T03:27:09.300Z,95062.16
2023-05-10T03:28:11.357Z,95061.38
2023-05-10T03:29:14.835Z,95068.28
2023-05-10T03:30:17.414Z,95061.94
2023-05-10T03:31:19.582Z,95057.19
2023-05-10T03:32:23.556Z,95065.94
2023-05-10T03:33:25.288Z,95060.38
2023-05-10T03:34:27.002Z,95063.31
2023-05-10T03:35:28.624Z,95065.97
2023-05-10T03:36:30.187Z,95059.59
2023-05-10T03:37:35.010Z,95061.19
2023-05-10T03:38:36.716Z,95068.09
2023-05-10T03:39:38.390Z,95061.75
2023-05-10T03:40:42.324Z,95065.16
2023-05-10T03:41:46.470Z,95068.34
2023-05-10T03:42:47.982Z,95063.56
2023-05-10T03:43:49.533Z,95061.97
2023-05-10T03:44:51.184Z,95058.81
2023-05-10T03:45:52.792Z,95060.56
2023-05-10T03:46:54.571Z,95058.22
2023-05-10T03:47:56.307Z,95065.94
2023-05-10T03:48:57.818Z,95067.78
2023-05-10T03:50:01.453Z,95060.63
2023-05-10T03:51:03.122Z,95059.59
2023-05-10T03:52:06.292Z,95062.22
2023-05-10T03:53:07.872Z,95054.03
2023-05-10T03:54:09.475Z,95057.47
2023-05-10T03:55:13.571Z,95060.91
2023-05-10T03:56:15.034Z,95061.72
2023-05-10T03:57:16.603Z,95051.66
2023-05-10T03:58:18.175Z,95055.88
2023-05-10T03:59:19.693Z,95054.84
2023-05-10T04:00:21.449Z,95050.59
2023-05-10T04:01:26.008Z,95050.56
2023-05-10T04:02:27.829Z,95048.97
2023-05-10T04:03:29.606Z,95044.47
2023-05-10T04:04:31.390Z,95048.16
2023-05-10T04:05:33.477Z,95053.22
2023-05-10T04:06:35.132Z,95055.84
2023-05-10T04:07:37.062Z,95046.84
2023-05-10T04:08:38.931Z,95057.97
2023-05-10T04:09:41.780Z,95056.09
2023-05-10T04:10:43.321Z,95054.25
2023-05-10T04:11:44.822Z,95047.09
2023-05-10T04:12:46.367Z,95053.75
2023-05-10T04:13:47.890Z,95049.53
2023-05-10T04:14:49.380Z,95046.06
2023-05-10T04:15:50.873Z,95043.69
2023-05-10T04:16:52.349Z,95047.38
2023-05-10T04:17:54.571Z,95033.59
2023-05-10T04:18:56.244Z,95045.25
2023-05-10T04:19:57.812Z,95048.91
2023-05-10T04:21:01.702Z,95047.38
2023-05-10T04:22:03.428Z,95044.19
2023-05-10T04:23:07.228Z,95038.09
2023-05-10T04:24:08.691Z,95045.19
2023-05-10T04:25:10.374Z,95046.28
2023-05-10T04:26:11.817Z,95044.97
2023-05-10T04:27:15.411Z,95046.78
2023-05-10T04:28:16.995Z,95044.19
2023-05-10T04:29:21.377Z,95046.00
2023-05-10T04:32:45.789Z,95047.03
2023-05-10T04:33:47.457Z,95050.44
2023-05-10T04:34:54.590Z,95048.06
2023-05-10T04:35:56.157Z,95049.91
2023-05-10T04:36:57.648Z,95045.66
2023-05-10T04:37:59.167Z,95044.63
2023-05-10T04:39:00.710Z,95037.72
2023-05-10T04:40:02.213Z,95047.50
2023-05-10T04:41:10.466Z,95049.34
2023-05-10T04:42:12.420Z,95052.53
2023-05-10T04:43:14.118Z,95055.16
2023-05-10T04:44:20.026Z,95057.56
2023-05-10T04:45:21.606Z,95060.22
2023-05-10T04:46:23.181Z,95053.84
2023-05-10T04:47:24.786Z,95056.22
2023-05-10T04:48:26.643Z,95058.34
2023-05-10T04:49:28.219Z,95059.94
2023-05-10T04:50:29.733Z,95064.69
2023-05-10T04:51:32.290Z,95059.66
2023-05-10T04:52:33.768Z,95064.44
2023-05-10T04:53:35.286Z,95067.88
2023-05-10T04:54:36.795Z,95066.81
2023-05-10T04:55:38.309Z,95069.44
2023-05-10T04:56:39.786Z,95067.34
2023-05-10T04:57:41.301Z,95066.31
2023-05-10T04:58:42.836Z,95070.00
2023-05-10T04:59:44.337Z,95071.38
2023-05-10T05:00:45.908Z,95071.59
2023-05-10T05:01:49.881Z,95073.16
2023-05-10T05:02:51.426Z,95079.00
2023-05-10T05:03:53.979Z,95072.66
2023-05-10T05:04:56.897Z,95083.78
2023-05-10T05:05:58.402Z,95075.09
2023-05-10T05:06:59.977Z,95078.53
2023-05-10T05:08:01.759Z,95075.91
2023-05-10T05:09:03.554Z,95074.31
2023-05-10T05:10:10.803Z,95082.25
2023-05-10T05:11:14.749Z,95077.78
2023-05-10T05:12:16.250Z,95079.09
2023-05-10T05:13:17.914Z,95082.56
2023-05-10T05:14:21.786Z,95080.19
2023-05-10T05:15:23.358Z,95087.53
2023-05-10T05:16:24.908Z,95085.69
2023-05-10T05:17:26.713Z,95082.19
2023-05-10T05:18:28.188Z,95091.25
2023-05-10T05:19:31.840Z,95092.09
2023-05-10T05:20:35.904Z,95088.63
2023-05-10T05:21:40.704Z,95096.31
2023-05-10T05:22:44.656Z,95089.97
2023-05-10T05:23:46.646Z,95093.44
2023-05-10T05:24:48.134Z,95096.63
2023-05-10T05:25:49.585Z,95099.53
2023-05-10T05:26:51.088Z,95098.50
2023-05-10T05:27:52.603Z,95101.41
2023-05-10T05:28:55.567Z,95101.91
2023-05-10T05:29:57.716Z,95102.91
2023-05-10T05:30:59.183Z,95102.84
2023-05-10T05:32:00.872Z,95109.88
2023-05-10T05:33:02.455Z,95108.66
2023-05-10T05:34:04.012Z,95115.53
2023-05-10T05:35:06.810Z,95105.00
2023-05-10T05:36:08.452Z,95110.25
2023-05-10T05:37:13.291Z,95115.50
2023-05-10T05:38:15.122Z,95111.72
2023-05-10T05:39:16.869Z,95113.06
2023-05-10T05:40:21.445Z,95113.91
2023-05-10T05:41:23.428Z,95112.66
2023-05-10T05:42:24.982Z,95115.31
2023-05-10T05:43:26.659Z,95124.03
2023-05-10T05:44:29.836Z,95104.38
2023-05-10T05:45:31.432Z,95110.09
2023-05-10T05:46:32.954Z,95118.59
2023-05-10T05:47:34.584Z,95124.94
2023-05-10T05:48:38.258Z,95130.28
2023-05-10T05:49:40.315Z,95128.75
2023-05-10T05:50:41.876Z,95129.25
2023-05-10T05:51:45.949Z,95126.88
2023-05-10T05:52:47.458Z,95136.84
2023-05-10T05:53:48.987Z,95128.91
2023-05-10T05:54:50.461Z,95130.00
2023-05-10T05:55:53.113Z,95130.56
2023-05-10T05:56:56.330Z,95130.78
2023-05-10T05:57:58.192Z,95135.03
2023-05-10T05:58:59.694Z,95131.81
2023-05-10T06:00:01.364Z,95137.69
2023-05-10T06:01:05.194Z,95135.28
2023-05-10T06:02:09.823Z,95132.16
2023-05-10T06:03:11.677Z,95133.75
2023-05-10T06:04:18.433Z,95139.53
2023-05-10T06:05:22.735Z,95136.94
2023-05-10T06:06:26.918Z,95139.03
2023-05-10T06:07:28.464Z,95139.03
2023-05-10T06:08:29.969Z,95134.03
2023-05-10T06:09:31.608Z,95138.53
2023-05-10T06:10:35.475Z,95134.03
2023-05-10T06:11:37.427Z,95135.38
2023-05-10T06:12:39.001Z,95142.00
2023-05-10T06:13:40.557Z,95139.41
2023-05-10T06:14:42.214Z,95144.06
2023-05-10T06:15:43.891Z,95147.25
2023-05-10T06:16:45.815Z,95144.38
2023-05-10T06:17:48.238Z,95149.91
2023-05-10T06:18:49.911Z,95143.06
2023-05-10T06:19:54.111Z,95155.19
2023-05-10T06:20:55.626Z,95157.09
2023-05-10T06:21:57.281Z,95150.72
2023-05-10T06:22:59.169Z,95153.59
2023-05-10T06:24:00.758Z,95148.31
2023-05-10T06:25:03.103Z,95159.41
2023-05-10T06:26:04.861Z,95149.25
2023-05-10T06:27:06.923Z,95152.00
2023-05-10T06:28:08.450Z,95153.59
2023-05-10T06:29:09.926Z,95156.28
2023-05-10T06:30:16.171Z,95153.63
2023-05-10T06:31:18.182Z,95156.84
2023-05-10T06:32:19.701Z,95164.81
2023-05-10T06:33:21.147Z,95161.88
2023-05-10T06:34:22.703Z,95158.97
2023-05-10T06:35:24.278Z,95158.47
2023-05-10T06:36:27.289Z,95163.25
2023-05-10T06:37:32.581Z,95162.97
2023-05-10T06:38:36.509Z,95166.16
2023-05-10T06:39:37.940Z,95163.78
2023-05-10T06:40:44.823Z,95159.84
2023-05-10T06:41:48.554Z,95166.75
2023-05-10T06:42:50.150Z,95160.16
2023-05-10T06:43:52.763Z,95165.72
2023-05-10T06:44:54.265Z,95164.94
2023-05-10T06:45:55.959Z,95165.47
2023-05-10T06:46:57.571Z,95172.38
2023-05-10T06:47:59.255Z,95165.53
2023-05-10T06:49:00.904Z,95166.31
2023-05-10T06:50:04.916Z,95172.94
2023-05-10T06:51:06.603Z,95174.53
2023-05-10T06:52:08.717Z,95172.97
2023-05-10T06:53:10.386Z,95174.31
2023-05-10T06:54:11.814Z,95169.03
2023-05-10T06:55:13.504Z,95170.94
2023-05-10T06:56:15.559Z,95172.28
2023-05-10T06:57:30.545Z,95174.13
2023-05-10T06:58:33.749Z,95172.00
2023-05-10T06:59:35.457Z,95168.56
2023-05-10T07:00:41.299Z,95173.84
2023-05-10T07:01:43.085Z,95177.59
2023-05-10T07:02:44.805Z,95175.72
2023-05-10T07:03:46.426Z,95168.59
2023-05-10T07:04:48.403Z,95177.31
2023-05-10T07:05:49.918Z,95172.28
2023-05-10T07:06:51.660Z,95174.09
2023-05-10T07:07:53.228Z,95175.94
2023-05-10T07:08:54.856Z,95181.53
2023-05-10T07:09:57.522Z,95175.72
2023-05-10T07:11:05.697Z,95181.00
2023-05-10T07:12:10.268Z,95176.28
2023-05-10T07:13:12.778Z,95175.75
2023-05-10T07:14:14.372Z,95169.16
2023-05-10T07:15:17.230Z,95173.41
2023-05-10T07:16:19.090Z,95177.63
2023-05-10T07:17:20.703Z,95175.22
2023-05-10T07:18:25.831Z,95176.25
2023-05-10T07:19:27.547Z,95176.81
2023-05-10T07:20:29.077Z,95175.50
2023-05-10T07:21:30.799Z,95178.97
2023-05-10T07:22:32.312Z,95171.03
2023-05-10T07:23:33.892Z,95171.06
2023-05-10T07:24:35.463Z,95176.63
2023-05-10T07:25:39.180Z,95178.00
2023-05-10T07:26:43.159Z,95172.72
2023-05-10T07:27:49.408Z,95169.00
2023-05-10T07:28:51.117Z,95172.72
2023-05-10T07:29:52.614Z,95178.78
2023-05-10T07:30:54.133Z,95172.97
2023-05-10T07:31:58.499Z,95168.75
2023-05-10T07:33:00.580Z,95173.78
2023-05-10T07:34:02.198Z,95175.97
2023-05-10T07:35:04.334Z,95176.47
2023-05-10T07:36:05.891Z,95175.66
2023-05-10T07:37:12.504Z,95176.75
2023-05-10T07:38:14.008Z,95175.66
2023-05-10T07:39:21.353Z,95178.88
2023-05-10T07:40:31.268Z,95178.88
2023-05-10T07:41:35.106Z,95175.19
2023-05-10T07:42:37.247Z,95184.50
2023-05-10T07:43:38.964Z,95181.03
2023-05-10T07:44:40.417Z,95179.22
2023-05-10T07:45:42.069Z,95178.09
2023-05-10T07:46:43.660Z,95177.03
2023-05-10T07:47:45.145Z,95178.09
2023-05-10T07:48:49.002Z,95177.06
2023-05-10T07:49:50.499Z,95172.03
2023-05-10T07:50:52.047Z,95178.63
2023-05-10T07:51:53.548Z,95170.69
2023-05-10T07:52:55.386Z,95172.84
2023-05-10T07:53:57.871Z,95173.94
2023-05-10T07:54:59.415Z,95172.91
2023-05-10T07:56:20.671Z,95169.75
2023-05-10T07:57:22.155Z,95169.78
2023-05-10T07:58:23.661Z,95170.88
2023-05-10T07:59:25.376Z,95165.81
2023-05-10T08:00:26.809Z,95160.78
2023-05-10T08:01:31.614Z,95166.13
2023-05-10T08:02:36.156Z,95166.09
2023-05-10T08:03:37.786Z,95162.41
2023-05-10T08:04:41.797Z,95168.78
2023-05-10T08:05:43.513Z,95169.31
2023-05-10T08:06:44.970Z,95173.31
2023-05-10T08:07:46.413Z,95171.97
2023-05-10T08:08:50.461Z,95169.84
2023-05-10T08:09:51.983Z,95174.34
2023-05-10T08:10:53.423Z,95177.28
2023-05-10T08:11:55.018Z,95179.13
2023-05-10T08:12:59.722Z,95176.75
2023-05-10T08:14:01.224Z,95176.19
2023-05-10T08:15:02.945Z,95175.63
2023-05-10T08:16:04.500Z,95181.22
2023-05-10T08:17:06.274Z,95171.63
2023-05-10T08:18:07.891Z,95165.47
2023-05-10T08:19:09.624Z,95173.72
2023-05-10T08:20:13.893Z,95168.16
2023-05-10T08:21:15.924Z,95170.28
2023-05-10T08:22:17.539Z,95169.22
2023-05-10T08:23:21.607Z,95168.69
2023-05-10T08:24:23.365Z,95171.31
2023-05-10T08:25:25.136Z,95163.38
2023-05-10T08:26:28.977Z,95163.88
2023-05-10T08:27:30.754Z,95170.03
2023-05-10T08:28:32.247Z,95169.53
2023-05-10T08:29:46.251Z,95170.31
2023-05-10T08:30:51.456Z,95167.91
2023-05-10T08:31:52.934Z,95179.84
2023-05-10T08:32:54.579Z,95178.25
2023-05-10T08:33:58.330Z,95182.03
2023-05-10T08:34:59.765Z,95185.22
2023-05-10T08:36:01.240Z,95184.19
2023-05-10T08:37:02.793Z,95175.44
2023-05-10T08:38:04.401Z,95177.25
2023-05-10T08:39:11.200Z,95179.16
2023-05-10T08:40:20.020Z,95179.94
2023-05-10T08:41:22.376Z,95184.47
2023-05-10T08:42:26.833Z,95184.72
2023-05-10T08:43:32.535Z,95191.06
2023-05-10T08:44:36.172Z,95180.72
2023-05-10T08:45:41.800Z,95188.44
2023-05-10T08:46:45.870Z,95187.38
2023-05-10T08:47:49.851Z,95186.59
2023-05-10T08:48:53.023Z,95182.59
2023-05-10T08:49:55.267Z,95196.91
2023-05-10T08:50:58.620Z,95189.19
2023-05-10T08:52:02.932Z,95192.41
2023-05-10T08:53:16.574Z,95187.13
2023-05-10T08:54:18.383Z,95186.06
2023-05-10T08:55:19.984Z,95189.47
2023-05-10T08:56:21.927Z,95199.06
2023-05-10T08:57:23.517Z,95193.19
2023-05-10T08:58:27.466Z,95200.38
2023-05-10T08:59:32.053Z,95192.16
2023-05-10T09:00:34.106Z,95201.72
2023-05-10T09:01:37.480Z,95198.78
2023-05-10T09:02:39.154Z,95192.41
2023-05-10T09:03:44.137Z,95198.00
2023-05-10T09:04:45.853Z,95200.09
2023-05-10T09:05:47.813Z,95194.25
2023-05-10T09:06:49.366Z,95196.66
2023-05-10T09:07:53.013Z,95202.19
2023-05-10T09:08:54.752Z,95194.78
2023-05-10T09:09:56.526Z,95198.47
2023-05-10T09:10:58.208Z,95193.66
2023-05-10T09:11:59.836Z,95194.75
2023-05-10T09:13:04.502Z,95192.06
2023-05-10T09:14:06.034Z,95194.69
2023-05-10T09:15:08.875Z,95191.47
2023-05-10T09:16:21.090Z,95191.47
2023-05-10T09:17:24.841Z,95184.03
2023-05-10T09:18:28.737Z,95193.66
2023-05-10T09:19:30.373Z,95188.28
2023-05-10T09:20:32.197Z,95194.16
2023-05-10T09:21:34.964Z,95197.94
2023-05-10T09:22:36.704Z,95197.88
2023-05-10T09:23:38.174Z,95194.13
2023-05-10T09:24:43.408Z,95190.41
2023-05-10T09:25:47.471Z,95191.53
2023-05-10T09:26:49.524Z,95196.84
2023-05-10T09:27:51.144Z,95194.44
2023-05-10T09:28:52.565Z,95191.75
2023-05-10T09:29:56.747Z,95196.84
2023-05-10T09:30:58.445Z,95201.88
2023-05-10T09:32:00.132Z,95200.81
2023-05-10T09:33:04.562Z,95207.22
2023-05-10T09:34:06.557Z,95202.69
2023-05-10T09:35:12.264Z,95206.69
2023-05-10T09:36:14.351Z,95205.63
2023-05-10T09:37:15.903Z,95201.88
2023-05-10T09:38:17.399Z,95200.59
2023-05-10T09:39:19.040Z,95200.25
2023-05-10T09:40:21.548Z,95206.88
2023-05-10T09:41:24.123Z,95198.91
2023-05-10T09:42:25.599Z,95200.75
2023-05-10T09:43:28.207Z,95204.19
2023-05-10T09:44:29.793Z,95196.75
2023-05-10T09:45:37.002Z,95191.13
2023-05-10T09:46:40.296Z,95197.25
2023-05-10T09:47:41.900Z,95199.88
2023-05-10T09:48:44.974Z,95194.56
2023-05-10T09:49:53.599Z,95201.97
2023-05-10T09:50:58.326Z,95202.50
2023-05-10T09:52:03.909Z,95202.22
2023-05-10T09:53:05.541Z,95202.19
2023-05-10T09:54:16.784Z,95211.72
2023-05-10T09:55:38.241Z,95204.53
2023-05-10T09:56:41.404Z,95206.09
2023-05-10T09:57:43.010Z,95205.44
2023-05-10T09:58:44.620Z,95200.56
2023-05-10T09:59:46.224Z,95197.69
2023-05-10T10:00:52.518Z,95199.25
2023-05-10T10:01:56.652Z,95208.78
2023-05-10T10:02:59.501Z,95199.22
2023-05-10T10:04:03.751Z,95203.22
2023-05-10T10:05:09.886Z,95203.53
2023-05-10T10:06:22.885Z,95196.56
2023-05-10T10:07:31.341Z,95199.22
2023-05-10T10:08:35.901Z,95206.09
2023-05-10T10:09:37.582Z,95202.13
2023-05-10T10:10:41.114Z,95208.31
2023-05-10T10:11:42.622Z,95209.31
2023-05-10T10:12:45.515Z,95202.94
2023-05-10T10:13:49.831Z,95210.97
2023-05-10T10:14:51.872Z,95206.75
2023-05-10T10:15:55.280Z,95210.78
2023-05-10T10:17:07.270Z,95210.31
2023-05-10T10:18:16.677Z,95205.72
2023-05-10T10:19:21.885Z,95203.34
2023-05-10T10:20:23.663Z,95208.72
2023-05-10T10:21:27.770Z,95201.09
2023-05-10T10:22:29.465Z,95195.94
2023-05-10T10:23:31.156Z,95198.81
2023-05-10T10:24:32.749Z,95194.19
2023-05-10T10:25:34.391Z,95200.53
2023-05-10T10:26:37.203Z,95198.84
2023-05-10T10:27:54.086Z,95202.31
2023-05-10T10:28:55.656Z,95208.38
2023-05-10T10:29:57.323Z,95204.13
2023-05-10T10:31:04.752Z,95211.03
2023-05-10T10:32:25.117Z,95204.16
2023-05-10T10:33:28.722Z,95207.91
2023-05-10T10:34:33.394Z,95205.97
2023-05-10T10:35:35.351Z,95201.75
2023-05-10T10:36:46.723Z,95200.97
2023-05-10T10:37:48.958Z,95196.13
2023-05-10T10:38:54.414Z,95207.78
2023-05-10T10:39:56.356Z,95197.28
2023-05-10T10:41:08.860Z,95205.97
2023-05-10T10:42:12.831Z,95197.59
2023-05-10T10:43:23.083Z,95199.44
2023-05-10T10:44:25.978Z,95192.69
2023-05-10T10:45:27.842Z,95196.50
2023-05-10T10:46:29.376Z,95203.97
2023-05-10T10:47:34.019Z,95200.19
2023-05-10T10:48:36.792Z,95192.19
2023-05-10T10:49:39.436Z,95195.88
2023-05-10T10:50:47.761Z,95188.91
2023-05-10T10:52:07.985Z,95196.78
2023-05-10T10:53:12.927Z,95198.19
2023-05-10T10:54:27.772Z,95190.34
2023-05-10T10:55:30.880Z,95192.84
2023-05-10T10:56:32.427Z,95195.53
2023-05-10T10:57:43.024Z,95194.06
2023-05-10T10:58:51.080Z,95190.72
2023-05-10T11:00:13.346Z,95191.81
2023-05-10T11:01:16.302Z,95187.97
2023-05-10T11:02:36.502Z,95189.53
2023-05-10T11:03:40.794Z,95190.63
2023-05-10T11:04:44.036Z,95184.47
2023-05-10T11:05:49.522Z,95188.47
2023-05-10T11:06:50.988Z,95187.91
2023-05-10T11:08:07.265Z,95186.19
2023-05-10T11:09:09.960Z,95184.44
2023-05-10T11:10:11.903Z,95186.44
2023-05-10T11:11:15.619Z,95192.91
2023-05-10T11:12:17.210Z,95186.44
2023-05-10T11:13:27.508Z,95185.03
2023-05-10T11:14:32.600Z,95184.59
2023-05-10T11:15:37.853Z,95186.25
2023-05-10T11:16:45.936Z,95182.06
2023-05-10T11:17:52.898Z,95178.25
2023-05-10T11:18:55.058Z,95179.63
2023-05-10T11:20:11.943Z,95184.69
2023-05-10T11:21:16.229Z,95171.69
2023-05-10T11:22:18.976Z,95175.75
2023-05-10T11:23:22.027Z,95171.41
2023-05-10T11:24:24.057Z,95178.97
2023-05-10T11:25:29.281Z,95170.09
2023-05-10T11:26:36.074Z,95175.22
2023-05-10T11:27:38.501Z,95166.28
2023-05-10T11:28:49.784Z,95177.22
2023-05-10T11:29:54.219Z,95176.53
2023-05-10T11:30:55.920Z,95178.91
2023-05-10T11:32:03.264Z,95177.97
2023-05-10T11:33:04.886Z,95184.03
2023-05-10T11:34:06.464Z,95181.06
2023-05-10T11:35:08.950Z,95176.19
2023-05-10T11:36:17.641Z,95175.81
2023-05-10T11:37:19.092Z,95174.13
2023-05-10T11:38:22.884Z,95171.81
2023-05-10T11:39:31.010Z,95174.16
2023-05-10T11:40:32.451Z,95169.75
2023-05-10T11:41:34.273Z,95168.03
2023-05-10T11:42:39.561Z,95163.19
2023-05-10T11:43:41.417Z,95165.84
2023-05-10T11:44:44.380Z,95163.09
2023-05-10T11:45:46.030Z,95169.38
2023-05-10T11:46:47.611Z,95166.72
2023-05-10T11:47:49.853Z,95169.28
2023-05-10T11:49:01.612Z,95173.56
2023-05-10T11:50:06.216Z,95173.53
2023-05-10T11:51:08.454Z,95179.00
2023-05-10T11:52:13.092Z,95173.09
2023-05-10T11:53:14.537Z,95172.22
2023-05-10T11:54:16.020Z,95170.81
2023-05-10T11:55:17.488Z,95175.75
2023-05-10T11:56:19.094Z,95177.88
2023-05-10T11:57:27.123Z,95171.19
2023-05-10T11:58:31.314Z,95176.53
2023-05-10T11:59:32.912Z,95173.94
2023-05-10T12:00:34.661Z,95168.59
2023-05-10T12:01:38.548Z,95175.53
2023-05-10T12:02:40.299Z,95172.94
2023-05-10T12:03:42.188Z,95171.44
2023-05-10T12:04:46.054Z,95172.72
2023-05-10T12:05:47.667Z,95170.69
2023-05-10T12:06:49.320Z,95177.56
2023-05-10T12:07:51.110Z,95174.63
2023-05-10T12:08:54.552Z,95169.16
2023-05-10T12:10:04.796Z,95178.56
2023-05-10T12:11:11.424Z,95166.78
2023-05-10T12:12:18.956Z,95167.38
2023-05-10T12:13:21.971Z,95180.47
2023-05-10T12:14:23.633Z,95178.31
2023-05-10T12:15:25.999Z,95171.72
2023-05-10T12:16:30.212Z,95175.22
2023-05-10T12:17:31.993Z,95170.56
2023-05-10T12:18:33.627Z,95179.53
2023-05-10T12:19:39.582Z,95174.94
2023-05-10T12:20:41.574Z,95178.50
2023-05-10T12:21:45.632Z,95183.38
2023-05-10T12:22:54.158Z,95175.72
2023-05-10T12:24:06.394Z,95177.72
2023-05-10T12:25:09.306Z,95178.31
2023-05-10T12:26:13.750Z,95183.34
2023-05-10T12:27:15.720Z,95176.56
2023-05-10T12:28:20.034Z,95168.88
2023-05-10T12:29:21.868Z,95172.81
2023-05-10T12:30:24.161Z,95177.22
2023-05-10T12:31:25.618Z,95181.16